createdAt,value
2023-02-19T00:06:14.000Z,6.80
2023-02-19T00:16:14.000Z,6.20
2023-02-19T00:26:14.000Z,6.00
2023-02-19T00:36:14.000Z,6.80
2023-02-19T00:46:14.000Z,9.10
2023-02-19T00:56:14.000Z,13.00
2023-02-19T01:06:14.000Z,14.90
2023-02-19T01:16:14.000Z,16.10
2023-02-19T01:26:14.000Z,13.70
2023-02-19T01:36:13.000Z,20.30
2023-02-19T01:46:13.000Z,25.10
2023-02-19T01:56:13.000Z,18.70
2023-02-19T02:06:13.000Z,21.70
2023-02-19T02:16:13.000Z,25.10
2023-02-19T02:26:13.000Z,38.20
2023-02-19T02:36:13.000Z,36.90
2023-02-19T02:46:13.000Z,24.50
2023-02-19T02:56:13.000Z,14.10
2023-02-19T03:06:13.000Z,8.80
2023-02-19T03:16:12.000Z,7.70
2023-02-19T03:26:12.000Z,9.30
2023-02-19T03:36:12.000Z,9.40
2023-02-19T03:46:12.000Z,7.50
2023-02-19T03:56:12.000Z,3.20
2023-02-19T04:06:12.000Z,1.30
2023-02-19T04:16:12.000Z,0.90
2023-02-19T04:26:12.000Z,1.20
2023-02-19T04:36:12.000Z,1.70
2023-02-19T04:46:12.000Z,0.60
2023-02-19T04:56:12.000Z,0.30
2023-02-19T05:06:11.000Z,1.00
2023-02-19T05:16:11.000Z,2.40
2023-02-19T05:26:11.000Z,3.30
2023-02-19T05:36:11.000Z,3.20
2023-02-19T05:46:11.000Z,2.60
2023-02-19T05:56:11.000Z,3.80
2023-02-19T06:06:11.000Z,4.90
2023-02-19T06:16:11.000Z,3.60
2023-02-19T06:26:11.000Z,2.80
2023-02-19T06:36:11.000Z,3.20
2023-02-19T06:46:11.000Z,3.80
2023-02-19T06:56:10.000Z,2.30
2023-02-19T07:06:10.000Z,2.10
2023-02-19T07:16:10.000Z,2.20
2023-02-19T07:26:10.000Z,2.30
2023-02-19T07:36:10.000Z,3.10
2023-02-19T07:46:10.000Z,3.40
2023-02-19T07:56:10.000Z,3.10
2023-02-19T08:06:10.000Z,3.90
2023-02-19T08:06:10.000Z,3.90
2023-02-19T08:16:10.000Z,3.30
2023-02-19T08:26:10.000Z,2.90
2023-02-19T08:36:09.000Z,2.10
2023-02-19T08:46:09.000Z,1.60
2023-02-19T08:56:09.000Z,1.20
2023-02-19T09:06:09.000Z,1.90
2023-02-19T09:16:09.000Z,1.70
2023-02-19T09:26:09.000Z,1.80
2023-02-19T09:36:09.000Z,0.80
2023-02-19T09:46:09.000Z,1.40
2023-02-19T09:56:09.000Z,1.80
2023-02-19T10:06:09.000Z,1.60
2023-02-19T10:16:09.000Z,1.50
2023-02-19T10:26:08.000Z,1.10
2023-02-19T10:36:08.000Z,1.60
2023-02-19T10:46:08.000Z,1.60
2023-02-19T10:56:08.000Z,1.90
2023-02-19T11:06:08.000Z,1.80
2023-02-19T11:16:08.000Z,1.70
2023-02-19T11:26:08.000Z,1.50
2023-02-19T11:36:08.000Z,1.90
2023-02-19T11:46:08.000Z,1.80
2023-02-19T11:56:08.000Z,1.70
2023-02-19T12:06:07.000Z,1.90
2023-02-19T12:16:07.000Z,1.60
2023-02-19T12:26:07.000Z,1.60
2023-02-19T12:36:07.000Z,1.70
2023-02-19T12:46:07.000Z,1.30
2023-02-19T12:56:07.000Z,1.30
2023-02-19T13:06:07.000Z,1.60
2023-02-19T13:16:07.000Z,1.40
2023-02-19T13:26:07.000Z,1.40
2023-02-19T13:36:07.000Z,1.40
2023-02-19T13:46:06.000Z,1.30
2023-02-19T13:56:06.000Z,1.60
2023-02-19T14:06:06.000Z,1.60
2023-02-19T14:16:06.000Z,1.80
2023-02-19T14:26:06.000Z,1.60
2023-02-19T14:36:06.000Z,1.50
2023-02-19T14:46:06.000Z,1.40
2023-02-19T14:56:06.000Z,1.60
2023-02-19T15:06:06.000Z,1.30
2023-02-19T15:16:06.000Z,1.10
2023-02-19T15:26:06.000Z,1.00
2023-02-19T15:36:05.000Z,0.80
2023-02-19T15:46:05.000Z,1.00
2023-02-19T15:56:05.000Z,1.50
2023-02-19T16:06:05.000Z,1.30
2023-02-19T16:16:05.000Z,1.20
2023-02-19T16:26:05.000Z,1.30
2023-02-19T16:36:05.000Z,1.80
2023-02-19T16:46:05.000Z,1.50
2023-02-19T16:56:05.000Z,1.90
2023-02-19T17:06:05.000Z,3.30
2023-02-19T17:16:04.000Z,3.40
2023-02-19T17:26:04.000Z,2.60
2023-02-19T17:36:04.000Z,2.20
2023-02-19T17:46:04.000Z,1.70
2023-02-19T17:56:04.000Z,27.90
2023-02-19T18:06:04.000Z,5.00
2023-02-19T18:16:04.000Z,3.40
2023-02-19T18:26:04.000Z,8.00
2023-02-19T18:36:04.000Z,5.00
2023-02-19T18:46:04.000Z,2.00
2023-02-19T18:56:04.000Z,3.20
2023-02-19T19:06:03.000Z,3.30
2023-02-19T19:16:03.000Z,5.30
2023-02-19T19:26:03.000Z,5.40
2023-02-19T19:36:03.000Z,3.20
2023-02-19T19:46:03.000Z,4.20
2023-02-19T19:56:03.000Z,10.10
2023-02-19T20:06:03.000Z,5.70
2023-02-19T20:16:03.000Z,7.90
2023-02-19T20:26:03.000Z,7.60
2023-02-19T20:36:03.000Z,8.20
2023-02-19T20:46:03.000Z,8.70
2023-02-19T20:56:02.000Z,9.90
2023-02-19T21:06:02.000Z,12.60
2023-02-19T21:16:02.000Z,20.00
2023-02-19T21:26:02.000Z,10.60
2023-02-19T21:36:02.000Z,11.60
2023-02-19T21:46:02.000Z,49.80
2023-02-19T21:56:02.000Z,91.00
2023-02-19T22:06:02.000Z,9.10
2023-02-19T22:16:02.000Z,11.60
2023-02-19T22:26:02.000Z,9.70
2023-02-19T22:36:02.000Z,8.60
2023-02-19T22:46:01.000Z,8.60
2023-02-19T22:56:01.000Z,8.40
2023-02-19T23:06:01.000Z,8.30
2023-02-19T23:16:01.000Z,8.00
2023-02-19T23:26:01.000Z,7.00
2023-02-19T23:36:01.000Z,7.60
2023-02-19T23:46:01.000Z,7.30
2023-02-19T23:56:01.000Z,7.30
